Time;durP1;ratioP1;P1;durP2;ratioP2;P2;SDS_P1;SDS_P2;PMS_P1;PMS_P2;Temp;Humidity;BMP_temperature;BMP_pressure;BME280_temperature;BME280_humidity;BME280_pressure;Samples;Min_cycle;Max_cycle;Signal;HPM_P1;HPM_P2
2024/04/14 00:01:21;;;;;;;2.60;1.60;;;;;;;21.84;50.73;100861.46;2285469;77;50227;-78
2024/04/14 00:04:23;;;;;;;1.55;1.40;;;;;;;21.81;50.63;100860.52;2309832;77;51533;-78
2024/04/14 00:07:25;;;;;;;1.50;1.40;;;;;;;21.83;50.62;100854.91;2256233;77;50979;-78
2024/04/14 00:10:28;;;;;;;1.20;1.10;;;;;;;21.82;50.60;100851.91;2312733;77;51474;-78
2024/04/14 00:13:30;;;;;;;2.50;1.30;;;;;;;21.81;50.63;100851.09;2281293;77;50386;-78
2024/04/14 00:16:32;;;;;;;2.10;1.50;;;;;;;21.82;50.58;100841.97;2306957;76;49482;-78
2024/04/14 00:19:34;;;;;;;1.40;1.30;;;;;;;21.82;50.59;100847.35;2281451;77;50676;-78
2024/04/14 00:22:36;;;;;;;1.85;1.50;;;;;;;21.82;50.61;100835.23;2307051;76;51405;-78
2024/04/14 00:25:38;;;;;;;2.10;1.50;;;;;;;21.80;50.56;100830.55;2280728;77;52664;-78
2024/04/14 00:28:41;;;;;;;1.67;1.47;;;;;;;21.79;50.55;100824.86;2306987;75;51406;-78
2024/04/14 00:31:43;;;;;;;2.17;1.52;;;;;;;21.81;50.50;100824.64;2312480;77;50569;-77
2024/04/14 00:34:45;;;;;;;1.30;1.20;;;;;;;21.80;50.55;100817.61;2306826;76;52406;-78
2024/04/14 00:37:47;;;;;;;1.62;1.35;;;;;;;21.80;50.53;100809.53;2312198;76;50301;-78
2024/04/14 00:40:50;;;;;;;1.50;1.20;;;;;;;21.80;50.52;100809.00;2312469;77;50288;-77
2024/04/14 00:43:52;;;;;;;1.30;1.20;;;;;;;21.79;50.54;100807.36;2281102;77;51602;-77
2024/04/14 00:46:54;;;;;;;1.90;1.50;;;;;;;21.79;50.51;100799.28;2311633;75;51434;-77
2024/04/14 00:49:56;;;;;;;1.30;1.20;;;;;;;21.80;50.43;100794.19;2281026;77;50064;-77
2024/04/14 00:52:59;;;;;;;1.37;1.27;;;;;;;21.79;50.42;100796.58;2312590;75;52347;-78
2024/04/14 00:56:01;;;;;;;1.37;1.27;;;;;;;21.79;50.47;100788.50;2312475;77;50340;-78
2024/04/14 00:59:03;;;;;;;2.12;1.40;;;;;;;21.78;50.48;100785.47;2281447;77;49991;-78
2024/04/14 01:02:06;;;;;;;1.30;1.20;;;;;;;21.80;50.40;100780.72;2312619;77;50566;-78
2024/04/14 01:05:09;;;;;;;1.40;1.30;;;;;;;21.78;50.44;100780.09;2294589;77;51450;-79
2024/04/14 01:08:12;;;;;;;1.50;1.27;;;;;;;21.80;50.42;100780.72;2294599;77;51601;-77
2024/04/14 01:11:14;;;;;;;3.40;1.47;;;;;;;21.79;50.40;100777.73;2294344;77;50331;-78
2024/04/14 01:14:17;;;;;;;2.33;1.40;;;;;;;21.78;50.40;100776.05;2263365;77;51252;-77
2024/04/14 01:17:20;;;;;;;1.85;1.47;;;;;;;21.79;50.35;100778.25;2293924;77;51461;-77
2024/04/14 01:20:22;;;;;;;1.87;1.55;;;;;;;21.79;50.37;100775.55;2294132;77;50653;-78
2024/04/14 01:23:26;;;;;;;1.30;1.20;;;;;;;21.78;50.40;100763.92;2289038;76;50072;-77
2024/04/14 01:26:28;;;;;;;1.98;1.50;;;;;;;21.79;50.34;100756.18;2293944;77;51422;-77
2024/04/14 01:29:30;;;;;;;1.55;1.45;;;;;;;21.78;50.43;100750.98;2294097;76;50177;-77
2024/04/14 01:32:38;;;;;;;2.60;1.32;;;;;;;21.78;50.41;100753.16;2293878;77;50341;-77
2024/04/14 01:35:39;;;;;;;1.55;1.45;;;;;;;21.78;50.43;100751.80;2294062;77;22997;-77
2024/04/14 01:38:41;;;;;;;1.45;1.30;;;;;;;21.78;50.44;100741.55;2263166;77;51209;-77
2024/04/14 01:41:44;;;;;;;1.70;1.17;;;;;;;21.78;50.44;100740.20;2294143;76;50662;-77
2024/04/14 01:44:46;;;;;;;1.50;1.40;;;;;;;21.77;50.43;100742.59;2263264;77;51496;-77
2024/04/14 01:47:49;;;;;;;1.42;1.30;;;;;;;21.77;50.45;100738.56;2262961;77;52559;-78
2024/04/14 01:50:51;;;;;;;1.50;1.40;;;;;;;21.78;50.46;100736.17;2294106;77;50376;-77
2024/04/14 01:53:54;;;;;;;1.47;1.37;;;;;;;21.75;50.48;100739.58;2263341;77;50673;-77
2024/04/14 01:56:56;;;;;;;1.45;1.35;;;;;;;21.75;50.52;100733.36;2293724;77;51591;-77
2024/04/14 01:59:58;;;;;;;1.30;1.20;;;;;;;21.79;50.37;100733.81;2293899;77;51505;-78
2024/04/14 02:03:00;;;;;;;1.40;1.30;;;;;;;21.77;50.42;100730.48;2292050;76;51524;-77
2024/04/14 02:06:03;;;;;;;1.30;1.20;;;;;;;21.77;50.45;100730.48;2271332;78;50249;-77
2024/04/14 02:09:05;;;;;;;1.25;1.15;;;;;;;21.79;50.35;100723.86;2273257;78;51556;-77
2024/04/14 02:12:07;;;;;;;1.82;1.50;;;;;;;21.77;50.42;100729.95;2246693;78;49492;-77
2024/04/14 02:15:10;;;;;;;1.42;1.27;;;;;;;21.76;50.38;100733.70;2247990;78;51523;-77
2024/04/14 02:18:12;;;;;;;1.50;1.37;;;;;;;21.76;50.34;100733.70;2248241;78;50689;-77
2024/04/14 02:21:14;;;;;;;1.47;1.17;;;;;;;21.75;50.32;100734.19;2248398;78;51558;-77
2024/04/14 02:24:16;;;;;;;1.40;1.30;;;;;;;21.75;50.39;100727.97;2248046;78;50741;-77
2024/04/14 02:27:18;;;;;;;1.52;1.37;;;;;;;21.75;50.35;100730.67;2247533;78;51062;-77
2024/04/14 02:30:20;;;;;;;1.95;1.30;;;;;;;21.76;50.40;100733.70;2273309;78;50460;-77
2024/04/14 02:33:23;;;;;;;2.70;1.20;;;;;;;21.76;50.39;100737.73;2271581;78;50227;-77
2024/04/14 02:36:27;;;;;;;3.35;1.27;;;;;;;21.73;50.44;100740.81;2247924;78;49357;-78
2024/04/14 02:39:29;;;;;;;1.27;1.17;;;;;;;21.75;50.40;100751.69;2271711;77;51414;-78
2024/04/14 02:42:35;;;;;;;1.50;1.35;;;;;;;21.74;50.42;100747.88;2248264;78;51462;-78
2024/04/14 02:45:37;;;;;;;1.65;1.55;;;;;;;21.75;50.41;100749.52;2270639;78;50239;-78
2024/04/14 02:48:39;;;;;;;1.22;1.10;;;;;;;21.74;50.42;100747.35;2271692;78;50731;-78
2024/04/14 02:51:44;;;;;;;1.42;1.30;;;;;;;21.74;50.45;100760.81;2248339;77;51135;-78
2024/04/14 02:54:46;;;;;;;;;;;;;;;21.75;50.39;100758.42;2274331;77;52925;-78
2024/04/14 02:57:48;;;;;;;1.70;1.20;;;;;;;21.73;50.46;100751.09;2271335;78;50617;-77
2024/04/14 03:01:02;;;;;;;1.65;1.55;;;;;;;21.74;50.45;100750.56;2247988;78;52420;-77
2024/04/14 03:04:05;;;;;;;1.30;1.20;;;;;;;21.75;50.45;100751.69;2247503;77;50648;-77
2024/04/14 03:07:08;;;;;;;1.15;1.12;;;;;;;21.75;50.41;100750.87;2224857;78;50270;-78
2024/04/14 03:10:10;;;;;;;1.32;1.17;;;;;;;21.76;50.36;100749.86;2247902;78;50932;-77
2024/04/14 03:13:12;;;;;;;1.90;1.40;;;;;;;21.74;50.42;100746.52;2271489;78;50308;-78
2024/04/14 03:16:14;;;;;;;1.75;1.27;;;;;;;21.72;50.39;100754.80;2271358;78;50342;-78
2024/04/14 03:19:16;;;;;;;1.35;1.25;;;;;;;21.74;50.36;100755.43;2271587;78;50703;-78
2024/04/14 03:22:19;;;;;;;2.58;1.40;;;;;;;21.73;50.44;100752.92;2271643;78;51391;-78
2024/04/14 03:25:21;;;;;;;2.25;1.40;;;;;;;21.73;50.43;100752.44;2247749;77;52577;-77
2024/04/14 03:28:26;;;;;;;1.17;1.10;;;;;;;21.75;50.38;100760.30;2271577;78;51412;-77
2024/04/14 03:31:28;;;;;;;;;;;;;;;21.73;50.45;100751.58;2250883;78;51579;-78
2024/04/14 03:34:30;;;;;;;3.47;1.60;;;;;;;21.73;50.48;100763.20;2273472;77;49948;-78
2024/04/14 03:37:32;;;;;;;1.50;1.40;;;;;;;21.73;50.44;100759.66;2271358;78;51409;-77
2024/04/14 03:40:34;;;;;;;1.57;1.30;;;;;;;21.73;50.46;100758.31;2271686;78;51356;-77
2024/04/14 03:43:37;;;;;;;1.98;1.35;;;;;;;21.74;50.46;100762.69;2222808;78;51432;-77
2024/04/14 03:46:39;;;;;;;1.45;1.35;;;;;;;21.73;50.47;100766.39;2273287;77;50690;-77
2024/04/14 03:49:41;;;;;;;2.55;1.25;;;;;;;21.71;50.49;100772.52;2271542;77;50362;-78
2024/04/14 03:52:43;;;;;;;1.40;1.30;;;;;;;21.71;50.57;100777.91;2224048;78;51357;-77
2024/04/14 03:55:45;;;;;;;2.72;1.42;;;;;;;21.72;50.53;100774.17;2271419;78;50231;-78
2024/04/14 03:58:49;;;;;;;1.40;1.30;;;;;;;21.72;50.49;100779.55;2247917;78;49553;-79
2024/04/14 04:01:51;;;;;;;1.55;1.30;;;;;;;21.72;50.48;100775.00;2271623;78;51615;-77
2024/04/14 04:04:53;;;;;;;1.30;1.20;;;;;;;21.73;50.55;100773.13;2248050;78;50330;-78
2024/04/14 04:07:55;;;;;;;1.82;1.50;;;;;;;21.72;50.52;100779.55;2248005;78;49532;-77
2024/04/14 04:10:59;;;;;;;1.87;1.45;;;;;;;21.72;50.53;100784.42;2271723;77;50231;-77
2024/04/14 04:14:01;;;;;;;1.75;1.22;;;;;;;21.72;50.51;100784.94;2273443;78;50590;-78
2024/04/14 04:17:03;;;;;;;2.25;1.65;;;;;;;21.71;50.58;100782.77;2271611;77;51411;-78
2024/04/14 04:20:05;;;;;;;1.85;1.60;;;;;;;21.73;50.54;100794.18;2273352;78;50653;-77
2024/04/14 04:23:07;;;;;;;2.30;1.67;;;;;;;21.72;50.55;100788.98;2200321;78;52551;-78
2024/04/14 04:26:10;;;;;;;1.22;1.12;;;;;;;21.72;50.54;100784.42;2271446;78;50341;-78
2024/04/14 04:29:12;;;;;;;1.40;1.30;;;;;;;21.72;50.62;100786.28;2271696;78;51459;-78
2024/04/14 04:32:17;;;;;;;1.52;1.40;;;;;;;21.72;50.55;100791.67;2273423;77;49530;-78
2024/04/14 04:35:18;;;;;;;1.67;1.27;;;;;;;21.73;50.59;100796.02;2271624;78;22362;-78
2024/04/14 04:38:22;;;;;;;1.45;1.35;;;;;;;21.73;50.55;100804.09;2271479;77;51484;-78
2024/04/14 04:41:24;;;;;;;1.95;1.47;;;;;;;21.73;50.58;100814.88;2271667;78;51499;-78
2024/04/14 04:44:26;;;;;;;2.22;1.60;;;;;;;21.75;50.53;100819.55;2271674;78;51450;-78
2024/04/14 04:47:29;;;;;;;1.92;1.75;;;;;;;21.72;50.66;100815.91;2273155;78;49562;-78
2024/04/14 04:50:31;;;;;;;2.10;1.52;;;;;;;21.71;50.63;100829.90;2271558;77;51541;-78
2024/04/14 04:53:34;;;;;;;1.70;1.40;;;;;;;21.71;50.61;100839.84;2248143;78;50699;-78
2024/04/14 04:56:36;;;;;;;1.87;1.55;;;;;;;21.72;50.63;100842.84;2273132;77;49527;-78
2024/04/14 04:59:38;;;;;;;1.40;1.30;;;;;;;21.71;50.61;100846.06;2271535;78;51451;-78
2024/04/14 05:02:40;;;;;;;1.47;1.27;;;;;;;21.71;50.65;100860.05;2271471;78;50353;-76
2024/04/14 05:05:42;;;;;;;1.62;1.30;;;;;;;21.71;50.65;100863.56;2271125;77;50395;-78
2024/04/14 05:08:45;;;;;;;2.72;1.45;;;;;;;21.72;50.62;100875.16;2271454;78;50756;-77
2024/04/14 05:11:47;;;;;;;1.30;1.20;;;;;;;21.73;50.63;100875.47;2247876;78;50944;-78
2024/04/14 05:14:49;;;;;;;1.55;1.45;;;;;;;21.73;50.64;100888.94;2271512;78;51464;-77
2024/04/14 05:17:53;;;;;;;1.50;1.40;;;;;;;21.73;50.61;100890.28;2271243;78;50238;-77
2024/04/14 05:20:55;;;;;;;1.67;1.37;;;;;;;21.72;50.58;100901.58;2247675;78;50002;-77
2024/04/14 05:23:57;;;;;;;1.62;1.37;;;;;;;21.71;50.60;100889.16;2271514;78;51503;-77
2024/04/14 05:26:59;;;;;;;1.60;1.45;;;;;;;21.73;50.55;100892.98;2271448;78;51466;-77
2024/04/14 05:30:02;;;;;;;1.40;1.27;;;;;;;21.72;50.53;100888.63;2271516;78;51539;-77
2024/04/14 05:33:04;;;;;;;2.72;1.57;;;;;;;21.73;50.55;100906.44;2273369;78;50310;-78
2024/04/14 05:36:07;;;;;;;2.10;1.55;;;;;;;21.72;50.55;100902.09;2248367;78;52657;-77
2024/04/14 05:39:09;;;;;;;1.37;1.27;;;;;;;21.72;50.58;100905.62;2224315;78;50599;-77
2024/04/14 05:42:11;;;;;;;1.57;1.20;;;;;;;21.72;50.51;100898.06;2273826;78;51456;-77
2024/04/14 05:45:17;;;;;;;1.47;1.30;;;;;;;21.73;50.50;100909.14;2248108;78;50904;-77
2024/04/14 05:48:18;;;;;;;;;;;;;;;21.73;50.49;100907.79;2272931;77;51532;-77
2024/04/14 05:51:20;;;;;;;2.20;1.30;;;;;;;21.71;50.57;100915.26;2271759;77;52192;-77
2024/04/14 05:54:23;;;;;;;1.67;1.22;;;;;;;21.73;50.52;100918.56;2248125;78;49540;-77
2024/04/14 05:57:25;;;;;;;1.98;1.50;;;;;;;21.72;50.59;100920.95;2248039;78;50330;-77
2024/04/14 06:00:27;;;;;;;1.60;1.50;;;;;;;21.72;50.60;100913.70;2271912;77;50397;-78
2024/04/14 06:03:29;;;;;;;2.20;1.70;;;;;;;21.72;50.59;100927.16;2271851;78;50289;-77
2024/04/14 06:06:31;;;;;;;1.30;1.15;;;;;;;21.71;50.58;100924.16;2294730;77;50187;-77
2024/04/14 06:09:34;;;;;;;1.30;1.20;;;;;;;21.73;50.58;100940.11;2307042;76;50017;-77
2024/04/14 06:12:36;;;;;;;2.70;1.20;;;;;;;21.74;50.56;100941.80;2312806;77;51469;-77
2024/04/14 06:15:38;;;;;;;2.02;1.50;;;;;;;21.73;50.56;100942.80;2312555;76;51476;-77
2024/04/14 06:18:40;;;;;;;1.60;1.50;;;;;;;21.74;50.62;100943.14;2307290;76;51069;-77
2024/04/14 06:21:42;;;;;;;1.00;1.00;;;;;;;21.74;50.55;100955.27;2312695;76;50196;-77
2024/04/14 06:24:45;;;;;;;1.62;1.35;;;;;;;21.74;50.51;100952.56;2312467;77;50304;-77
2024/04/14 06:27:47;;;;;;;1.95;1.30;;;;;;;21.73;50.57;100950.88;2306983;76;50662;-78
2024/04/14 06:30:49;;;;;;;1.50;1.22;;;;;;;21.74;50.55;100946.66;2281389;77;50669;-78
2024/04/14 06:33:51;;;;;;;1.80;1.40;;;;;;;21.73;50.61;100953.58;2281195;77;50104;-78
2024/04/14 06:36:53;;;;;;;1.98;1.37;;;;;;;21.74;50.54;100963.34;2312246;77;51487;-78
2024/04/14 06:39:56;;;;;;;1.57;1.30;;;;;;;21.75;50.56;100971.73;2281320;77;50087;-78
2024/04/14 06:42:58;;;;;;;1.50;1.27;;;;;;;21.75;50.64;100971.73;2281183;77;50874;-77
2024/04/14 06:46:00;;;;;;;1.47;1.22;;;;;;;21.75;50.63;100971.73;2312283;77;50504;-77
2024/04/14 06:49:02;;;;;;;1.45;1.32;;;;;;;21.75;50.62;100972.55;2312466;77;52224;-77
2024/04/14 06:52:05;;;;;;;1.50;1.40;;;;;;;21.76;50.68;100973.41;2306975;76;54194;-78
2024/04/14 06:55:11;;;;;;;1.30;1.20;;;;;;;21.76;50.71;100970.72;2281082;77;50250;-78
2024/04/14 06:58:11;;;;;;;1.72;1.30;;;;;;;21.76;50.71;100990.92;2282392;76;22373;-77
2024/04/14 07:01:14;;;;;;;1.60;1.30;;;;;;;21.78;50.78;100994.22;2281274;77;50710;-77
2024/04/14 07:04:17;;;;;;;1.50;1.20;;;;;;;21.77;50.82;100987.18;2312389;77;50233;-77
2024/04/14 07:07:20;;;;;;;1.60;1.07;;;;;;;21.79;50.81;100991.04;2274114;77;51035;-77
2024/04/14 07:10:22;;;;;;;1.72;1.27;;;;;;;21.78;50.84;100991.53;2302009;76;51485;-76
2024/04/14 07:13:24;;;;;;;1.30;1.20;;;;;;;21.78;50.82;101000.95;2302457;77;50669;-77
2024/04/14 07:16:26;;;;;;;1.35;1.25;;;;;;;21.78;50.88;101006.86;2302091;77;50557;-77
2024/04/14 07:19:29;;;;;;;2.08;1.20;;;;;;;21.77;50.88;101010.08;2302231;77;51512;-77
2024/04/14 07:22:31;;;;;;;2.02;1.37;;;;;;;21.78;50.91;101015.77;2270937;77;50932;-78
2024/04/14 07:25:33;;;;;;;1.52;1.20;;;;;;;21.77;50.90;101018.16;2301811;77;51447;-78
2024/04/14 07:28:37;;;;;;;1.77;1.20;;;;;;;21.78;50.86;101014.95;2302042;76;50302;-78
2024/04/14 07:31:39;;;;;;;1.62;1.30;;;;;;;21.79;50.82;101028.75;2296725;76;50926;-77
2024/04/14 07:34:41;;;;;;;1.02;1.02;;;;;;;21.78;50.85;101029.76;2301818;77;51442;-77
2024/04/14 07:37:43;;;;;;;1.50;1.17;;;;;;;21.77;50.90;101032.97;2301748;77;51457;-77
2024/04/14 07:40:46;;;;;;;1.70;1.35;;;;;;;21.77;50.90;101028.94;2301987;77;50327;-77
2024/04/14 07:43:48;;;;;;;1.95;1.30;;;;;;;21.77;50.89;101034.32;2271238;77;50325;-77
2024/04/14 07:46:50;;;;;;;1.22;1.12;;;;;;;21.79;50.86;101034.97;2270620;77;51018;-77
2024/04/14 07:49:52;;;;;;;1.45;1.10;;;;;;;21.78;50.95;101034.63;2302252;77;51469;-77
2024/04/14 07:52:55;;;;;;;1.30;1.20;;;;;;;21.78;50.98;101037.84;2302201;77;50406;-77
2024/04/14 07:55:57;;;;;;;1.42;1.10;;;;;;;21.78;50.99;101035.15;2270762;77;51108;-77
2024/04/14 07:59:01;;;;;;;1.45;1.10;;;;;;;21.78;50.92;101041.36;2302338;77;51603;-78
2024/04/14 08:02:03;;;;;;;1.57;1.30;;;;;;;21.78;50.93;101035.98;2302147;76;50249;-77
2024/04/14 08:05:06;;;;;;;1.75;1.47;;;;;;;21.78;50.91;101045.41;2270860;77;51576;-78
2024/04/14 08:08:08;;;;;;;1.77;1.27;;;;;;;21.79;50.91;101044.39;2233343;77;50700;-77
2024/04/14 08:11:11;;;;;;;1.55;1.20;;;;;;;21.79;50.89;101045.73;2252663;77;51097;-77
2024/04/14 08:14:14;;;;;;;1.45;1.32;;;;;;;21.79;50.88;101039.01;2285685;76;50257;-77
2024/04/14 08:17:16;;;;;;;1.15;1.00;;;;;;;21.79;50.86;101051.13;2285336;77;50704;-77
2024/04/14 08:20:18;;;;;;;1.65;1.22;;;;;;;21.79;50.92;101061.91;2278066;77;50869;-77
2024/04/14 08:23:21;;;;;;;1.10;1.00;;;;;;;21.82;50.27;101060.16;2285580;77;51471;-77
2024/04/14 08:26:23;;;;;;;1.20;1.10;;;;;;;21.83;50.80;101079.84;2285415;77;50627;-78
2024/04/14 08:29:25;;;;;;;1.55;1.30;;;;;;;21.79;51.11;101067.29;2252790;77;53105;-77
2024/04/14 08:32:27;;;;;;;1.10;1.00;;;;;;;21.82;51.23;101077.67;2285544;77;50631;-78
2024/04/14 08:35:30;;;;;;;1.65;1.00;;;;;;;21.82;51.25;101086.27;2252596;77;51023;-78
2024/04/14 08:38:32;;;;;;;1.95;1.10;;;;;;;21.82;51.20;101081.71;2278042;77;50629;-77
2024/04/14 08:41:34;;;;;;;1.55;1.07;;;;;;;21.82;51.00;101091.14;2285645;77;51571;-78
2024/04/14 08:44:37;;;;;;;1.57;1.07;;;;;;;21.84;50.97;101075.62;2278316;77;50041;-77
2024/04/14 08:47:39;;;;;;;1.20;1.07;;;;;;;21.83;51.15;101075.28;2277910;77;50121;-77
2024/04/14 08:50:41;;;;;;;1.70;1.20;;;;;;;21.82;51.15;101088.45;2285530;77;50399;-77
2024/04/14 08:53:44;;;;;;;1.80;1.20;;;;;;;21.84;50.97;101102.56;2285493;77;50698;-77
2024/04/14 08:56:46;;;;;;;1.95;1.20;;;;;;;21.85;50.90;101096.13;2285207;77;51513;-77
2024/04/14 08:59:49;;;;;;;1.22;1.12;;;;;;;21.88;49.76;101096.26;2252671;77;49530;-79
2024/04/14 09:02:51;;;;;;;1.30;1.05;;;;;;;21.88;50.36;101113.25;2277716;77;51387;-78
2024/04/14 09:05:53;;;;;;;1.17;1.07;;;;;;;21.90;49.35;101109.03;2285234;77;50379;-79
2024/04/14 09:08:56;;;;;;;1.95;1.10;;;;;;;21.90;48.94;101101.77;2274193;77;50695;-79
2024/04/14 09:12:02;;;;;;;1.07;0.95;;;;;;;21.88;48.73;101106.52;2271895;78;51557;-78
2024/04/14 09:15:06;;;;;;;1.37;1.00;;;;;;;21.85;48.85;101101.52;2270965;77;22210;-78
2024/04/14 09:18:08;;;;;;;1.27;1.00;;;;;;;21.84;48.72;101101.22;2224233;78;51483;-78
2024/04/14 09:21:11;;;;;;;2.33;1.10;;;;;;;21.83;48.87;101113.00;2248416;77;50222;-77
2024/04/14 09:24:13;;;;;;;2.60;1.20;;;;;;;21.83;48.83;101108.95;2271827;78;50753;-77
2024/04/14 09:27:15;;;;;;;1.07;0.88;;;;;;;21.83;48.86;101115.69;2248285;78;50965;-78
2024/04/14 09:30:22;;;;;;;1.80;0.98;;;;;;;21.87;48.69;101110.25;2224490;78;51509;-78
2024/04/14 09:33:21;;;;;;;2.17;1.02;;;;;;;21.86;48.86;101118.52;2271190;78;22962;-78
2024/04/14 09:36:27;;;;;;;1.75;1.20;;;;;;;21.86;48.92;101126.11;2271464;78;51636;-78
2024/04/14 09:39:30;;;;;;;2.35;1.10;;;;;;;21.88;48.43;101134.80;2271712;77;51579;-78
2024/04/14 09:42:33;;;;;;;1.50;1.00;;;;;;;21.87;49.18;101135.84;2248315;78;51092;-78
2024/04/14 09:45:35;;;;;;;2.00;1.00;;;;;;;21.88;48.99;101133.45;2271524;78;52368;-77
2024/04/14 09:48:37;;;;;;;3.33;0.88;;;;;;;21.91;48.46;101127.70;2271642;78;51515;-77
2024/04/14 09:51:40;;;;;;;0.90;0.90;;;;;;;21.91;48.25;101135.80;2273445;77;51036;-77
2024/04/14 09:54:44;;;;;;;2.62;1.00;;;;;;;21.90;48.30;101139.49;2271753;78;50742;-77
2024/04/14 09:57:48;;;;;;;1.20;0.93;;;;;;;21.89;47.80;101143.23;2271463;77;51540;-77
2024/04/14 10:00:50;;;;;;;1.05;0.88;;;;;;;21.87;47.65;101144.45;2273699;78;22455;-77
2024/04/14 10:03:54;;;;;;;1.32;1.10;;;;;;;21.88;47.65;101136.15;2271677;78;50689;-76
2024/04/14 10:06:57;;;;;;;1.23;0.90;;;;;;;21.89;47.77;101143.75;2248209;78;49801;-76
2024/04/14 10:09:59;;;;;;;1.02;0.85;;;;;;;21.87;46.98;101138.53;2294172;77;50722;-78
2024/04/14 10:13:03;;;;;;;1.12;1.00;;;;;;;21.87;47.63;101143.92;2263924;77;50498;-77
2024/04/14 10:16:07;;;;;;;0.88;0.88;;;;;;;21.88;47.40;101153.66;2288390;77;49656;-77
2024/04/14 10:19:09;;;;;;;1.07;0.98;;;;;;;21.89;47.35;101148.62;2294258;76;50211;-77
2024/04/14 10:22:11;;;;;;;1.25;0.80;;;;;;;21.87;47.67;101147.97;2294479;77;50612;-78
2024/04/14 10:25:21;;;;;;;2.15;0.95;;;;;;;21.90;48.23;101146.23;2294239;77;50201;-78
2024/04/14 10:28:23;;;;;;;1.65;1.10;;;;;;;21.92;48.21;101157.66;2294586;76;51515;-77
2024/04/14 10:31:35;;;;;;;1.32;0.90;;;;;;;21.95;47.76;101147.83;2263634;77;49367;-78
2024/04/14 10:34:38;;;;;;;1.27;0.85;;;;;;;21.91;49.21;101153.30;2294566;77;50754;-77
2024/04/14 10:37:40;;;;;;;1.10;1.00;;;;;;;21.96;48.06;101144.62;2288644;76;51405;-78
2024/04/14 10:40:43;;;;;;;1.00;0.90;;;;;;;21.93;47.92;101160.66;2288932;76;50842;-78
2024/04/14 10:43:46;;;;;;;0.70;0.70;;;;;;;21.93;47.72;101166.05;2288811;77;50307;-78
2024/04/14 10:46:48;;;;;;;1.50;0.93;;;;;;;21.94;47.46;101174.47;2263174;77;50703;-77
2024/04/14 10:49:51;;;;;;;1.10;0.88;;;;;;;21.92;47.49;101180.55;2294307;77;50401;-78
2024/04/14 10:52:53;;;;;;;1.10;1.00;;;;;;;21.93;48.05;101185.42;2294169;77;51594;-77
2024/04/14 10:55:55;;;;;;;1.72;0.90;;;;;;;21.95;48.84;101180.16;2263465;77;51209;-78
2024/04/14 10:58:57;;;;;;;0.98;0.62;;;;;;;21.92;49.21;101180.55;2294315;76;50313;-77
2024/04/14 11:02:00;;;;;;;1.15;0.70;;;;;;;21.93;49.24;101179.52;2294368;77;50327;-78
2024/04/14 11:05:02;;;;;;;1.12;0.90;;;;;;;21.92;49.36;101185.95;2262937;77;51576;-77
2024/04/14 11:08:05;;;;;;;0.90;0.78;;;;;;;21.91;49.48;101173.52;2294124;76;52088;-77
2024/04/14 11:11:07;;;;;;;1.95;0.90;;;;;;;21.93;49.21;101185.42;2294124;77;51514;-77
2024/04/14 11:14:09;;;;;;;1.42;0.80;;;;;;;21.92;49.18;101177.86;2294229;77;51581;-78
2024/04/14 11:17:15;;;;;;;1.52;0.85;;;;;;;21.94;49.08;101179.86;2294096;77;51495;-78
2024/04/14 11:20:17;;;;;;;1.67;1.00;;;;;;;21.93;49.48;101171.44;2263586;77;50824;-77
2024/04/14 11:23:21;;;;;;;2.25;0.88;;;;;;;21.97;49.10;101179.98;2263605;77;50634;-78
2024/04/14 11:26:23;;;;;;;1.42;0.85;;;;;;;21.97;49.02;101189.41;2263640;77;51626;-77
2024/04/14 11:29:25;;;;;;;1.40;1.00;;;;;;;21.97;48.44;101181.33;2263250;77;49566;-78
2024/04/14 11:32:32;;;;;;;0.90;0.80;;;;;;;21.99;48.21;101182.47;2263531;77;50425;-79
2024/04/14 11:35:32;;;;;;;1.10;0.80;;;;;;;22.00;47.72;101186.85;2293577;77;22394;-77
2024/04/14 11:38:34;;;;;;;2.72;1.00;;;;;;;22.00;48.05;101180.11;2263716;77;50827;-77
2024/04/14 11:41:36;;;;;;;1.40;0.78;;;;;;;22.01;48.05;101181.77;2263530;77;51697;-78
2024/04/14 11:44:38;;;;;;;1.57;0.90;;;;;;;22.00;48.57;101178.77;2263211;77;52834;-77
2024/04/14 11:47:40;;;;;;;0.75;0.65;;;;;;;22.00;47.80;101186.33;2294228;77;51463;-78
2024/04/14 11:50:42;;;;;;;1.37;0.80;;;;;;;22.00;48.70;101186.85;2263479;77;51081;-78
2024/04/14 11:53:45;;;;;;;1.35;1.00;;;;;;;21.98;48.56;101189.73;2263487;77;51340;-77
2024/04/14 11:56:47;;;;;;;1.00;0.78;;;;;;;22.03;47.83;101191.84;2294128;77;51491;-78
2024/04/14 11:59:52;;;;;;;1.50;0.90;;;;;;;22.00;47.90;101178.25;2288630;77;50119;-77
2024/04/14 12:02:54;;;;;;;1.75;1.00;;;;;;;22.01;46.81;101177.73;2264379;77;50270;-77
2024/04/14 12:05:57;;;;;;;2.27;0.90;;;;;;;22.00;47.27;101180.94;2294008;77;50678;-76
2024/04/14 12:08:59;;;;;;;1.12;0.78;;;;;;;22.02;47.24;101178.06;2263357;76;51050;-77
2024/04/14 12:12:01;;;;;;;1.35;0.88;;;;;;;22.03;46.92;101176.50;2294275;77;51554;-77
2024/04/14 12:15:04;;;;;;;0.75;0.70;;;;;;;22.04;47.35;101174.16;2294195;77;51457;-78
2024/04/14 12:18:06;;;;;;;1.15;0.90;;;;;;;22.05;47.04;101168.24;2263323;77;51011;-77
2024/04/14 12:21:09;;;;;;;2.37;0.95;;;;;;;22.05;46.99;101162.85;2294624;77;51593;-77
2024/04/14 12:24:11;;;;;;;1.27;0.72;;;;;;;22.05;47.04;101158.81;2294688;77;50691;-77
2024/04/14 12:27:13;;;;;;;1.92;0.80;;;;;;;22.04;47.76;101165.20;2294155;77;50253;-78
2024/04/14 12:30:15;;;;;;;1.60;0.80;;;;;;;22.04;47.90;101163.86;2294437;77;50413;-77
2024/04/14 12:33:17;;;;;;;1.32;0.72;;;;;;;22.04;47.14;101159.81;2263277;77;51053;-77
2024/04/14 12:36:20;;;;;;;1.07;0.72;;;;;;;22.06;47.61;101153.73;2294000;77;50260;-77
2024/04/14 12:39:23;;;;;;;2.30;0.90;;;;;;;22.05;47.78;101159.64;2294198;76;51570;-77
2024/04/14 12:42:25;;;;;;;1.10;0.80;;;;;;;22.05;48.20;101146.68;2263205;77;50078;-77
2024/04/14 12:45:28;;;;;;;1.12;0.70;;;;;;;22.03;47.24;101150.08;2293827;76;50335;-77
2024/04/14 12:48:30;;;;;;;2.17;0.80;;;;;;;22.03;47.51;101150.08;2294263;77;51504;-77
2024/04/14 12:51:33;;;;;;;1.77;0.80;;;;;;;22.05;47.29;101156.11;2294233;77;50358;-77
2024/04/14 12:54:35;;;;;;;1.00;0.80;;;;;;;22.04;47.26;101160.68;2294064;77;50488;-77
2024/04/14 12:57:37;;;;;;;1.02;0.70;;;;;;;22.06;47.42;101156.42;2288186;76;51739;-77
2024/04/14 13:00:40;;;;;;;1.45;0.88;;;;;;;22.08;46.78;101150.33;2288451;77;50299;-77
2024/04/14 13:03:42;;;;;;;1.17;0.98;;;;;;;22.06;47.33;101140.25;2294091;77;51538;-76
2024/04/14 13:06:44;;;;;;;0.90;0.70;;;;;;;22.07;46.97;101144.63;2262855;77;52459;-78
2024/04/14 13:09:46;;;;;;;1.27;0.85;;;;;;;22.07;46.96;101144.11;2285041;76;51498;-77
2024/04/14 13:12:48;;;;;;;0.85;0.57;;;;;;;22.06;47.54;101146.47;2223771;78;51480;-77
2024/04/14 13:15:51;;;;;;;1.30;0.80;;;;;;;22.07;47.47;101144.63;2271260;78;52497;-77
2024/04/14 13:18:54;;;;;;;1.32;0.70;;;;;;;22.08;47.42;101135.51;2273116;77;54065;-77
2024/04/14 13:21:56;;;;;;;1.75;0.70;;;;;;;22.07;47.78;101132.50;2273249;78;50045;-77
2024/04/14 13:24:58;;;;;;;0.90;0.80;;;;;;;22.08;47.52;101136.86;2271352;78;51346;-76
2024/04/14 13:28:00;;;;;;;1.70;0.80;;;;;;;22.07;47.80;101139.24;2271426;78;51515;-78
2024/04/14 13:31:02;;;;;;;1.25;0.70;;;;;;;22.08;47.59;101143.59;2247898;78;51096;-77
2024/04/14 13:34:05;;;;;;;3.42;0.70;;;;;;;22.10;47.22;101135.63;2273532;77;50306;-77
2024/04/14 13:37:07;;;;;;;2.10;1.05;;;;;;;22.09;47.67;101130.42;2273579;77;49630;-78
2024/04/14 13:40:09;;;;;;;1.05;0.80;;;;;;;22.10;47.77;101119.98;2271972;78;50849;-79
2024/04/14 13:43:12;;;;;;;0.60;0.60;;;;;;;22.09;47.64;101116.46;2273675;78;51370;-77
2024/04/14 13:46:14;;;;;;;2.87;0.90;;;;;;;22.08;47.60;101119.34;2273088;77;52663;-78
2024/04/14 13:49:16;;;;;;;1.10;0.75;;;;;;;22.11;47.42;101116.25;2271884;78;50714;-77
2024/04/14 13:52:29;;;;;;;1.12;0.80;;;;;;;22.08;47.84;101108.56;2271985;78;51530;-78
2024/04/14 13:55:31;;;;;;;1.22;0.80;;;;;;;22.06;47.98;101108.73;2247723;78;49962;-78
2024/04/14 13:58:34;;;;;;;1.82;0.90;;;;;;;22.06;48.02;101116.00;2271646;78;50689;-78
2024/04/14 14:01:37;;;;;;;1.05;0.70;;;;;;;22.05;48.01;101112.48;2271651;78;50339;-78
2024/04/14 14:04:39;;;;;;;0.90;0.68;;;;;;;22.06;48.02;101116.83;2271795;78;51514;-79
2024/04/14 14:07:42;;;;;;;2.40;0.68;;;;;;;22.09;47.90;101108.86;2224050;78;51570;-78
2024/04/14 14:10:44;;;;;;;0.68;0.60;;;;;;;22.06;48.00;101101.17;2278251;77;52628;-78